createdAt,value
2023-05-05T00:01:09.867Z,57.87
2023-05-05T00:03:38.593Z,57.89
2023-05-05T00:06:11.040Z,57.78
2023-05-05T00:08:38.087Z,57.95
2023-05-05T00:11:05.104Z,57.95
2023-05-05T00:13:32.064Z,56.75
2023-05-05T00:16:00.248Z,57.06
2023-05-05T00:18:30.399Z,57.14
2023-05-05T00:21:00.221Z,56.57
2023-05-05T00:23:31.366Z,56.78
2023-05-05T00:25:58.383Z,57.64
2023-05-05T00:28:28.456Z,58.14
2023-05-05T00:30:58.481Z,57.88
2023-05-05T00:33:28.406Z,57.69
2023-05-05T00:36:01.352Z,58.83
2023-05-05T00:38:32.162Z,59.05
2023-05-05T00:41:04.871Z,60.52
2023-05-05T00:43:32.581Z,59.34
2023-05-05T00:46:04.544Z,59.51
2023-05-05T00:48:32.636Z,59.36
2023-05-05T00:51:08.373Z,59.42
2023-05-05T00:53:45.146Z,59.14
2023-05-05T00:56:17.217Z,60.52
2023-05-05T00:58:52.078Z,59.69
2023-05-05T01:01:20.283Z,59.86
2023-05-05T01:03:50.190Z,60.01
2023-05-05T01:06:35.578Z,60.51
2023-05-05T01:09:34.004Z,61.03
2023-05-05T01:12:15.283Z,60.69
2023-05-05T01:14:53.344Z,60.19
2023-05-05T01:17:23.818Z,60.47
2023-05-05T01:20:05.732Z,60.85
2023-05-05T01:22:42.868Z,60.27
2023-05-05T01:25:38.242Z,60.63
2023-05-05T01:28:04.953Z,60.82
2023-05-05T01:31:10.428Z,61.73
2023-05-05T01:33:46.231Z,61.20
2023-05-05T01:36:22.787Z,61.39
2023-05-05T01:38:55.329Z,61.12
2023-05-05T01:41:28.623Z,61.75
2023-05-05T01:43:57.322Z,61.42
2023-05-05T01:46:27.399Z,61.51
2023-05-05T01:48:55.211Z,61.24
2023-05-05T01:51:24.332Z,61.17
2023-05-05T01:53:53.047Z,61.37
2023-05-05T01:56:20.646Z,61.27
2023-05-05T01:58:50.959Z,60.54
2023-05-05T02:01:19.185Z,60.25
2023-05-05T02:03:47.852Z,60.63
2023-05-05T02:06:15.138Z,61.11
2023-05-05T02:08:42.215Z,60.86
2023-05-05T02:11:10.096Z,60.91
2023-05-05T02:13:39.016Z,61.72
2023-05-05T02:16:06.374Z,61.76
2023-05-05T02:18:35.876Z,61.50
2023-05-05T02:21:03.554Z,61.29
2023-05-05T02:23:30.705Z,61.75
2023-05-05T02:26:01.034Z,62.38
2023-05-05T02:28:35.429Z,62.26
2023-05-05T02:31:02.893Z,61.69
2023-05-05T02:33:33.444Z,61.10
2023-05-05T02:36:11.218Z,62.44
2023-05-05T02:38:49.592Z,62.21
2023-05-05T02:41:18.727Z,62.98
2023-05-05T02:43:46.470Z,63.08
2023-05-05T02:46:13.461Z,63.68
2023-05-05T02:48:43.713Z,63.99
2023-05-05T02:51:10.712Z,64.71
2023-05-05T02:53:38.414Z,64.36
2023-05-05T02:56:20.986Z,65.73
2023-05-05T02:58:54.726Z,64.79
2023-05-05T03:01:55.555Z,64.82
2023-05-05T03:04:36.693Z,64.75
2023-05-05T03:07:29.791Z,65.53
2023-05-05T03:10:10.318Z,65.55
2023-05-05T03:12:58.991Z,65.28
2023-05-05T03:15:46.322Z,65.20
2023-05-05T03:18:21.956Z,64.54
2023-05-05T03:21:00.236Z,64.42
2023-05-05T03:23:38.961Z,64.91
2023-05-05T03:26:21.249Z,64.53
2023-05-05T03:28:53.993Z,63.81
2023-05-05T03:31:28.411Z,64.37
2023-05-05T03:33:58.554Z,63.85
2023-05-05T03:36:30.134Z,63.90
2023-05-05T03:38:58.776Z,64.10
2023-05-05T03:41:28.364Z,64.14
2023-05-05T03:43:55.257Z,63.43
2023-05-05T03:46:22.406Z,63.59
2023-05-05T03:48:49.548Z,63.05
2023-05-05T03:51:16.435Z,63.57
2023-05-05T03:53:47.020Z,63.65
2023-05-05T03:56:14.180Z,63.63
2023-05-05T03:58:41.291Z,63.85
2023-05-05T04:01:08.521Z,64.68
2023-05-05T04:03:35.807Z,64.30
2023-05-05T04:06:03.064Z,64.21
2023-05-05T04:08:33.316Z,63.59
2023-05-05T04:11:02.747Z,63.53
2023-05-05T04:13:31.130Z,63.74
2023-05-05T04:15:59.781Z,63.84
2023-05-05T04:18:29.472Z,64.04
2023-05-05T04:20:56.440Z,64.32
2023-05-05T04:23:23.398Z,64.98
2023-05-05T04:25:50.835Z,65.30
2023-05-05T04:28:20.976Z,65.74
2023-05-05T04:30:48.844Z,65.42
2023-05-05T04:33:15.793Z,64.75
2023-05-05T04:35:42.628Z,64.28
2023-05-05T04:38:09.750Z,63.57
2023-05-05T04:40:43.288Z,63.46
2023-05-05T04:43:11.144Z,63.19
2023-05-05T04:45:38.291Z,63.29
2023-05-05T04:48:05.932Z,63.14
2023-05-05T04:50:33.984Z,63.16
2023-05-05T04:53:00.914Z,63.31
2023-05-05T04:55:28.535Z,63.17
2023-05-05T04:57:56.644Z,63.19
2023-05-05T05:00:25.865Z,63.13
2023-05-05T05:02:54.999Z,62.91
2023-05-05T05:05:22.017Z,62.83
2023-05-05T05:07:49.094Z,62.92
2023-05-05T05:10:15.937Z,62.93
2023-05-05T05:12:42.791Z,63.23
2023-05-05T05:15:11.056Z,63.06
2023-05-05T05:17:38.426Z,63.10
2023-05-05T05:20:09.161Z,62.95
2023-05-05T05:22:38.719Z,62.81
2023-05-05T05:25:09.024Z,63.16
2023-05-05T05:27:36.942Z,63.29
2023-05-05T05:30:04.279Z,63.02
2023-05-05T05:32:32.832Z,62.98
2023-05-05T05:34:59.747Z,62.97
2023-05-05T05:37:31.056Z,62.98
2023-05-05T05:39:59.187Z,62.77
2023-05-05T05:42:28.332Z,63.07
2023-05-05T05:44:55.213Z,62.84
2023-05-05T05:47:22.009Z,62.34
2023-05-05T05:49:52.026Z,61.99
2023-05-05T05:52:19.872Z,61.75
2023-05-05T05:54:46.897Z,62.17
2023-05-05T05:57:13.753Z,62.23
2023-05-05T05:59:40.610Z,62.18
2023-05-05T06:02:08.252Z,62.23
2023-05-05T06:04:35.834Z,62.74
2023-05-05T06:07:02.813Z,62.81
2023-05-05T06:09:29.831Z,62.59
2023-05-05T06:11:56.596Z,62.57
2023-05-05T06:14:23.342Z,62.82
2023-05-05T06:16:52.798Z,62.95
2023-05-05T06:19:26.562Z,63.00
2023-05-05T06:21:54.265Z,62.82
2023-05-05T06:24:21.460Z,62.81
2023-05-05T06:26:48.384Z,62.98
2023-05-05T06:29:15.333Z,62.24
2023-05-05T06:31:42.265Z,62.15
2023-05-05T06:34:09.119Z,61.71
2023-05-05T06:36:36.059Z,61.69
2023-05-05T06:39:02.747Z,61.94
2023-05-05T06:41:29.482Z,62.12
2023-05-05T06:43:56.387Z,62.10
2023-05-05T06:46:23.182Z,62.32
2023-05-05T06:48:50.105Z,62.33
2023-05-05T06:51:16.869Z,62.62
2023-05-05T06:53:43.660Z,62.37
2023-05-05T06:56:11.410Z,62.00
2023-05-05T06:58:38.170Z,61.77
2023-05-05T07:01:05.229Z,62.04
2023-05-05T07:03:32.166Z,61.74
2023-05-05T07:05:58.903Z,62.29
2023-05-05T07:08:25.737Z,62.09
2023-05-05T07:10:52.438Z,61.90
2023-05-05T07:13:19.379Z,62.44
2023-05-05T07:15:46.676Z,62.78
2023-05-05T07:18:14.322Z,62.69
2023-05-05T07:20:41.282Z,62.72
2023-05-05T07:23:08.162Z,62.96
2023-05-05T07:25:35.115Z,63.03
2023-05-05T07:28:01.910Z,63.32
2023-05-05T07:30:28.778Z,63.57
2023-05-05T07:32:56.720Z,63.48
2023-05-05T07:35:23.692Z,63.99
2023-05-05T07:37:51.256Z,64.15
2023-05-05T07:40:18.168Z,65.05
2023-05-05T07:42:45.422Z,64.86
2023-05-05T07:45:12.304Z,65.07
2023-05-05T07:47:40.520Z,65.43
2023-05-05T07:50:08.567Z,65.60
2023-05-05T07:52:46.867Z,66.44
2023-05-05T07:55:16.925Z,66.71
2023-05-05T07:57:47.756Z,66.32
2023-05-05T08:00:19.516Z,66.27
2023-05-05T08:02:47.950Z,66.66
2023-05-05T08:05:18.677Z,67.03
2023-05-05T08:07:48.928Z,67.05
2023-05-05T08:10:19.324Z,67.29
2023-05-05T08:12:46.494Z,66.77
2023-05-05T08:15:13.397Z,66.77
2023-05-05T08:17:47.802Z,67.20
2023-05-05T08:20:15.729Z,67.95
2023-05-05T08:22:43.236Z,68.18
2023-05-05T08:25:13.247Z,68.56
2023-05-05T08:27:41.439Z,67.51
2023-05-05T08:30:09.180Z,67.39
2023-05-05T08:32:36.290Z,67.52
2023-05-05T08:35:07.061Z,67.53
2023-05-05T08:37:34.275Z,67.35
2023-05-05T08:40:01.068Z,67.67
2023-05-05T08:42:37.194Z,67.60
2023-05-05T08:45:10.782Z,67.15
2023-05-05T08:47:43.207Z,68.05
2023-05-05T08:50:19.543Z,67.62
2023-05-05T08:53:02.083Z,67.33
2023-05-05T08:55:34.436Z,67.10
2023-05-05T08:58:04.159Z,67.60
2023-05-05T09:00:35.333Z,67.09
2023-05-05T09:03:09.229Z,66.11
2023-05-05T09:05:55.645Z,66.19
2023-05-05T09:08:24.801Z,65.63
2023-05-05T09:10:54.415Z,65.63
2023-05-05T09:13:28.786Z,65.56
2023-05-05T09:16:13.645Z,65.80
2023-05-05T09:18:49.380Z,66.21
2023-05-05T09:21:27.170Z,65.69
2023-05-05T09:24:11.749Z,65.12
2023-05-05T09:26:44.850Z,64.60
2023-05-05T09:29:40.844Z,64.67
2023-05-05T09:32:14.609Z,64.41
2023-05-05T09:34:46.419Z,64.51
2023-05-05T09:37:33.378Z,64.24
2023-05-05T09:40:01.763Z,63.85
2023-05-05T09:42:51.959Z,62.96
2023-05-05T09:45:28.116Z,62.71
2023-05-05T09:48:08.526Z,62.43
2023-05-05T09:51:01.301Z,61.90
2023-05-05T09:53:42.857Z,61.92
2023-05-05T09:56:12.756Z,61.81
2023-05-05T09:58:48.709Z,61.43
2023-05-05T10:01:24.484Z,61.11
2023-05-05T10:03:53.902Z,61.32
2023-05-05T10:06:50.696Z,60.47
2023-05-05T10:09:32.226Z,61.15
2023-05-05T10:12:15.986Z,61.68
2023-05-05T10:14:47.429Z,61.50
2023-05-05T10:17:26.874Z,60.32
2023-05-05T10:20:05.907Z,60.43
2023-05-05T10:22:44.462Z,59.79
2023-05-05T10:25:26.691Z,59.89
2023-05-05T10:28:04.530Z,60.05
2023-05-05T10:30:44.784Z,60.13
2023-05-05T10:36:04.390Z,60.49
2023-05-05T10:38:31.876Z,60.26
2023-05-05T10:41:05.120Z,60.13
2023-05-05T10:43:43.985Z,60.36
2023-05-05T10:46:14.649Z,61.19
2023-05-05T10:48:54.040Z,61.27
2023-05-05T10:51:40.984Z,61.27
2023-05-05T10:54:45.048Z,61.17
2023-05-05T10:57:22.448Z,61.57
2023-05-05T11:00:15.040Z,61.78
2023-05-05T11:02:44.670Z,61.94
2023-05-05T11:05:24.373Z,61.96
2023-05-05T11:08:32.901Z,61.88
2023-05-05T11:11:04.944Z,61.86
2023-05-05T11:13:35.165Z,61.83
2023-05-05T11:16:08.679Z,61.52
2023-05-05T11:18:45.239Z,61.62
2023-05-05T11:21:18.482Z,61.64
2023-05-05T11:24:06.104Z,61.55
2023-05-05T11:27:08.109Z,62.02
2023-05-05T11:30:11.154Z,61.66
2023-05-05T11:32:44.377Z,61.55
2023-05-05T11:35:15.780Z,61.47
2023-05-05T11:38:01.808Z,61.18
2023-05-05T11:40:35.056Z,61.28
2023-05-05T11:43:20.832Z,60.83
2023-05-05T11:46:16.101Z,61.15
2023-05-05T11:49:16.590Z,60.79
2023-05-05T11:51:59.329Z,60.84
2023-05-05T11:54:36.823Z,60.59
2023-05-05T11:57:08.263Z,60.87
2023-05-05T12:00:13.063Z,60.65
2023-05-05T12:02:43.008Z,60.40
2023-05-05T12:05:21.702Z,60.11
2023-05-05T12:08:03.781Z,59.97
2023-05-05T12:10:38.595Z,60.28
2023-05-05T12:13:19.040Z,60.33
2023-05-05T12:15:50.662Z,60.06
2023-05-05T12:18:21.798Z,59.91
2023-05-05T12:21:01.807Z,59.86
2023-05-05T12:23:41.359Z,59.73
2023-05-05T12:26:10.290Z,59.68
2023-05-05T12:28:53.950Z,59.25
2023-05-05T12:31:47.872Z,58.58
2023-05-05T12:34:18.910Z,58.55
2023-05-05T12:36:55.741Z,57.96
2023-05-05T12:39:23.880Z,58.04
2023-05-05T12:42:06.197Z,57.91
2023-05-05T12:45:03.571Z,58.15
2023-05-05T12:47:42.391Z,57.96
2023-05-05T12:50:15.459Z,57.61
2023-05-05T12:53:03.171Z,57.41
2023-05-05T12:55:48.234Z,57.42
2023-05-05T12:58:31.808Z,57.10
2023-05-05T13:01:18.260Z,56.93
2023-05-05T13:04:17.509Z,56.69
2023-05-05T13:06:51.720Z,56.89
2023-05-05T13:09:50.441Z,55.92
2023-05-05T13:12:26.100Z,56.63
2023-05-05T13:14:54.870Z,56.41
2023-05-05T13:17:26.914Z,55.69
2023-05-05T13:19:54.022Z,55.72
2023-05-05T13:22:30.154Z,55.51
2023-05-05T13:25:10.205Z,55.27
2023-05-05T13:27:50.721Z,55.13
2023-05-05T13:30:24.419Z,54.63
2023-05-05T13:32:59.033Z,54.97
2023-05-05T13:35:37.095Z,54.67
2023-05-05T13:38:22.167Z,54.52
2023-05-05T13:41:00.930Z,54.35
2023-05-05T13:43:40.138Z,54.40
2023-05-05T13:46:20.170Z,54.64
2023-05-05T13:49:01.838Z,54.57
2023-05-05T13:54:40.929Z,53.71
2023-05-05T13:57:58.427Z,54.15
2023-05-05T14:00:30.152Z,53.87
2023-05-05T14:03:09.472Z,53.83
2023-05-05T14:05:37.815Z,53.63
2023-05-05T14:08:20.165Z,53.42
2023-05-05T14:10:53.105Z,53.48
2023-05-05T14:13:41.951Z,53.11
2023-05-05T14:16:09.347Z,53.37
2023-05-05T14:19:30.167Z,53.49
2023-05-05T14:22:17.786Z,53.32
2023-05-05T14:25:02.642Z,53.22
2023-05-05T14:27:40.765Z,53.25
2023-05-05T14:30:18.071Z,53.30
2023-05-05T14:33:00.770Z,53.38
2023-05-05T14:35:47.260Z,52.80
2023-05-05T14:38:44.077Z,52.57
2023-05-05T14:41:17.620Z,52.32
2023-05-05T14:43:47.429Z,52.01
2023-05-05T14:46:22.634Z,52.03
2023-05-05T14:48:56.575Z,51.55
2023-05-05T14:51:29.156Z,51.67
2023-05-05T14:54:28.419Z,50.13
2023-05-05T14:57:11.349Z,50.51
2023-05-05T14:59:45.497Z,51.07
2023-05-05T15:02:18.025Z,51.13
2023-05-05T15:04:50.931Z,50.91
2023-05-05T15:07:39.175Z,50.94
2023-05-05T15:10:19.148Z,50.82
2023-05-05T15:12:53.681Z,51.04
2023-05-05T15:15:26.305Z,50.92
2023-05-05T15:18:06.993Z,50.45
2023-05-05T15:21:11.617Z,50.21
2023-05-05T15:24:04.632Z,50.03
2023-05-05T15:26:43.508Z,50.29
2023-05-05T15:29:23.061Z,50.39
2023-05-05T15:31:52.823Z,50.36
2023-05-05T15:34:32.168Z,50.42
2023-05-05T15:37:12.166Z,49.98
2023-05-05T15:39:53.535Z,50.08
2023-05-05T15:42:27.052Z,50.21
2023-05-05T15:44:57.478Z,50.52
2023-05-05T15:47:30.449Z,51.21
2023-05-05T15:50:08.529Z,51.29
2023-05-05T15:53:40.750Z,51.48
2023-05-05T15:56:21.741Z,51.85
2023-05-05T15:59:14.152Z,51.85
2023-05-05T16:02:24.797Z,51.38
2023-05-05T16:05:00.266Z,51.38
2023-05-05T16:07:50.414Z,52.17
2023-05-05T16:10:31.234Z,52.81
2023-05-05T16:13:09.896Z,53.24
2023-05-05T16:15:42.857Z,53.40
2023-05-05T16:18:34.338Z,53.43
2023-05-05T16:21:20.074Z,53.40
2023-05-05T16:24:14.623Z,53.81
2023-05-05T16:26:50.037Z,54.65
2023-05-05T16:29:27.039Z,54.96
2023-05-05T16:31:59.949Z,55.35
2023-05-05T16:35:15.379Z,57.31
2023-05-05T16:38:42.551Z,58.63
2023-05-05T16:41:31.236Z,60.76
2023-05-05T16:44:20.202Z,64.19
2023-05-05T16:46:58.852Z,63.85
2023-05-05T16:49:37.186Z,63.24
2023-05-05T16:52:10.629Z,64.74
2023-05-05T16:54:46.083Z,64.75
2023-05-05T16:57:33.010Z,67.14
2023-05-05T17:00:28.676Z,67.28
2023-05-05T17:03:01.681Z,68.01
2023-05-05T17:06:18.720Z,72.52
2023-05-05T17:08:57.687Z,69.37
2023-05-05T17:11:38.956Z,70.69
2023-05-05T17:14:44.754Z,70.97
2023-05-05T17:17:35.215Z,74.69
2023-05-05T17:21:17.006Z,74.33
2023-05-05T17:32:15.931Z,79.75
2023-05-05T17:35:16.414Z,80.85
2023-05-05T17:37:43.181Z,76.06
2023-05-05T17:40:10.112Z,76.34
2023-05-05T17:42:38.227Z,76.94
2023-05-05T17:45:05.437Z,77.32
2023-05-05T17:47:32.489Z,77.77
2023-05-05T17:49:59.513Z,78.74
2023-05-05T17:52:26.301Z,79.08
2023-05-05T17:54:52.998Z,79.45
2023-05-05T17:57:22.961Z,79.40
2023-05-05T17:59:50.360Z,79.35
2023-05-05T18:02:17.298Z,80.21
2023-05-05T18:04:44.028Z,80.82
2023-05-05T18:07:12.246Z,79.84
2023-05-05T18:09:39.116Z,79.96
2023-05-05T18:12:07.587Z,80.26
2023-05-05T18:14:34.439Z,80.49
2023-05-05T18:17:01.327Z,81.10
2023-05-05T18:19:28.132Z,81.22
2023-05-05T18:21:54.933Z,81.24
2023-05-05T18:24:21.942Z,81.48
2023-05-05T18:26:50.909Z,81.63
2023-05-05T18:29:19.304Z,82.05
2023-05-05T18:31:48.554Z,81.97
2023-05-05T18:34:16.655Z,82.61
2023-05-05T18:36:43.441Z,82.34
2023-05-05T18:39:10.187Z,82.62
2023-05-05T18:41:37.107Z,82.56
2023-05-05T18:44:03.932Z,82.71
2023-05-05T18:46:30.777Z,82.96
2023-05-05T18:48:57.632Z,82.89
2023-05-05T18:51:24.534Z,83.00
2023-05-05T18:53:51.302Z,82.76
2023-05-05T18:56:18.119Z,83.05
2023-05-05T18:58:44.879Z,82.81
2023-05-05T19:01:11.940Z,82.54
2023-05-05T19:03:38.886Z,83.22
2023-05-05T19:06:06.278Z,83.15
2023-05-05T19:08:33.224Z,83.16
2023-05-05T19:11:00.038Z,83.72
2023-05-05T19:13:26.897Z,83.23
2023-05-05T19:15:54.958Z,83.13
2023-05-05T19:18:21.838Z,83.36
2023-05-05T19:20:48.623Z,83.46
2023-05-05T19:23:17.403Z,83.43
2023-05-05T19:25:44.536Z,83.34
2023-05-05T19:28:12.005Z,83.30
2023-05-05T19:30:38.915Z,83.58
2023-05-05T19:33:06.260Z,83.34
2023-05-05T19:35:35.802Z,83.83
2023-05-05T19:38:02.577Z,84.15
2023-05-05T19:40:29.292Z,84.01
2023-05-05T19:42:56.102Z,83.49
2023-05-05T19:45:23.002Z,83.93
2023-05-05T19:47:49.737Z,83.69
2023-05-05T19:50:16.527Z,83.66
2023-05-05T19:52:43.201Z,83.53
2023-05-05T19:55:13.286Z,83.94
2023-05-05T19:57:40.512Z,84.21
2023-05-05T20:00:10.464Z,84.06
2023-05-05T20:02:37.632Z,83.73
2023-05-05T20:05:04.728Z,84.01
2023-05-05T20:07:31.519Z,83.95
2023-05-05T20:09:58.724Z,83.81
2023-05-05T20:12:25.731Z,83.98
2023-05-05T20:14:52.688Z,84.34
2023-05-05T20:17:21.312Z,84.31
2023-05-05T20:19:48.199Z,84.21
2023-05-05T20:22:15.009Z,84.10
2023-05-05T20:24:41.915Z,83.79
2023-05-05T20:27:08.641Z,83.54
2023-05-05T20:29:35.357Z,83.72
2023-05-05T20:32:02.103Z,83.74
2023-05-05T20:34:29.018Z,83.41
2023-05-05T20:36:56.624Z,83.57
2023-05-05T20:39:23.494Z,83.20
2023-05-05T20:41:50.173Z,83.36
2023-05-05T20:44:17.233Z,83.06
2023-05-05T20:46:44.326Z,83.63
2023-05-05T20:49:11.062Z,83.61
2023-05-05T20:51:37.859Z,83.54
2023-05-05T20:54:05.016Z,84.06
2023-05-05T20:56:31.851Z,84.00
2023-05-05T20:58:58.616Z,84.09
2023-05-05T21:01:25.442Z,84.26
2023-05-05T21:03:52.692Z,84.40
2023-05-05T21:06:19.609Z,84.27
2023-05-05T21:08:47.144Z,84.38
2023-05-05T21:11:14.026Z,84.39
2023-05-05T21:13:40.863Z,84.22
2023-05-05T21:16:07.872Z,84.51
2023-05-05T21:18:34.661Z,84.08
2023-05-05T21:21:01.593Z,84.28
2023-05-05T21:23:28.431Z,84.24
2023-05-05T21:25:55.557Z,83.92
2023-05-05T21:28:22.285Z,83.97
2023-05-05T21:31:10.316Z,84.55
2023-05-05T21:33:38.037Z,83.97
2023-05-05T21:36:06.190Z,83.84
2023-05-05T21:38:33.006Z,83.19
2023-05-05T21:40:59.759Z,83.00
2023-05-05T21:43:28.543Z,82.84
2023-05-05T21:46:00.131Z,82.67
2023-05-05T21:48:27.295Z,82.80
2023-05-05T21:50:54.716Z,82.93
2023-05-05T21:53:21.670Z,82.77
2023-05-05T21:55:48.600Z,83.15
2023-05-05T21:58:16.401Z,82.84
2023-05-05T22:00:43.201Z,82.90
2023-05-05T22:03:10.210Z,82.60
2023-05-05T22:05:37.009Z,82.82
2023-05-05T22:08:03.981Z,82.09
2023-05-05T22:10:30.984Z,82.06
2023-05-05T22:12:58.247Z,82.29
2023-05-05T22:15:27.709Z,82.36
2023-05-05T22:17:56.926Z,82.50
2023-05-05T22:20:23.820Z,81.99
2023-05-05T22:22:51.046Z,82.27
2023-05-05T22:25:18.012Z,82.01
2023-05-05T22:27:45.492Z,82.23
2023-05-05T22:30:12.914Z,82.51
2023-05-05T22:32:40.931Z,82.62
2023-05-05T22:35:09.370Z,83.08
2023-05-05T22:37:36.544Z,82.66
2023-05-05T22:40:03.702Z,83.19
2023-05-05T22:42:30.970Z,82.75
2023-05-05T22:44:57.928Z,83.11
2023-05-05T22:47:24.742Z,82.98
2023-05-05T22:49:51.631Z,82.93
2023-05-05T22:52:18.946Z,82.58
2023-05-05T22:54:45.850Z,82.83
2023-05-05T22:57:12.675Z,82.73
2023-05-05T22:59:39.486Z,82.62
2023-05-05T23:02:06.274Z,82.68
2023-05-05T23:04:33.391Z,82.64
2023-05-05T23:07:00.187Z,82.79
2023-05-05T23:09:26.961Z,82.71
2023-05-05T23:11:53.757Z,82.56
2023-05-05T23:14:20.567Z,82.14
2023-05-05T23:16:47.326Z,82.06
2023-05-05T23:19:14.132Z,81.73
2023-05-05T23:21:52.130Z,81.41
2023-05-05T23:24:19.908Z,82.04
2023-05-05T23:26:46.665Z,81.46
2023-05-05T23:29:13.514Z,81.08
2023-05-05T23:31:40.336Z,81.50
2023-05-05T23:34:07.056Z,81.57
2023-05-05T23:36:33.828Z,81.82
2023-05-05T23:39:00.609Z,81.17
2023-05-05T23:41:27.404Z,81.29
2023-05-05T23:43:54.127Z,81.78
2023-05-05T23:46:20.928Z,81.89
2023-05-05T23:48:47.771Z,81.88
2023-05-05T23:51:14.821Z,81.52
2023-05-05T23:53:41.622Z,81.77
2023-05-05T23:56:08.403Z,81.49
2023-05-05T23:58:35.176Z,81.28
